Time;durP1;ratioP1;P1;durP2;ratioP2;P2;SDS_P1;SDS_P2;PMS_P1;PMS_P2;Temp;Humidity;BMP_temperature;BMP_pressure;BME280_temperature;BME280_humidity;BME280_pressure;Samples;Min_cycle;Max_cycle;Signal;HPM_P1;HPM_P2
2023/06/02 00:01:02;;;;;;;5.50;5.00;;;;;;;;;;5025367;28;20030;-70
2023/06/02 00:03:32;;;;;;;5.45;5.05;;;;;;;;;;5025588;28;20021;-69
2023/06/02 00:05:59;;;;;;;5.40;4.90;;;;;;;;;;5023454;28;20026;-72
2023/06/02 00:08:26;;;;;;;5.18;4.60;;;;;;;;;;5024435;28;20033;-71
2023/06/02 00:10:52;;;;;;;5.13;4.63;;;;;;;;;;5022175;28;20382;-70
2023/06/02 00:13:17;;;;;;;5.32;4.82;;;;;;;;;;5025509;28;20116;-70
2023/06/02 00:15:43;;;;;;;5.00;4.60;;;;;;;;;;5021693;28;20109;-70
2023/06/02 00:18:09;;;;;;;5.63;5.10;;;;;;;;;;5025530;28;20057;-70
2023/06/02 00:20:35;;;;;;;5.60;5.10;;;;;;;;;;5027082;28;20045;-69
2023/06/02 00:23:01;;;;;;;5.43;4.93;;;;;;;;;;5027093;28;20037;-69
2023/06/02 00:25:28;;;;;;;5.53;5.05;;;;;;;;;;5024767;28;20038;-71
2023/06/02 00:27:54;;;;;;;5.40;4.90;;;;;;;;;;5026867;28;20068;-70
2023/06/02 00:30:19;;;;;;;5.78;5.20;;;;;;;;;;5025263;28;20064;-69
2023/06/02 00:32:45;;;;;;;5.18;4.72;;;;;;;;;;5025538;28;20049;-71
2023/06/02 00:35:10;;;;;;;5.45;5.00;;;;;;;;;;5024845;28;20029;-69
2023/06/02 00:37:36;;;;;;;5.60;5.10;;;;;;;;;;5025560;28;20041;-70
2023/06/02 00:40:03;;;;;;;6.47;5.10;;;;;;;;;;5026597;28;20084;-71
2023/06/02 00:42:29;;;;;;;5.93;4.95;;;;;;;;;;5024526;28;20128;-70
2023/06/02 00:44:55;;;;;;;5.82;5.00;;;;;;;;;;5026608;28;20037;-68
2023/06/02 00:47:20;;;;;;;5.50;4.95;;;;;;;;;;5024106;28;20037;-71
2023/06/02 00:49:46;;;;;;;5.68;5.07;;;;;;;;;;5026246;28;20037;-69
2023/06/02 00:52:13;;;;;;;5.22;4.68;;;;;;;;;;5024347;28;20029;-69
2023/06/02 00:54:39;;;;;;;10.05;5.10;;;;;;;;;;5025165;28;20080;-70
2023/06/02 00:57:06;;;;;;;5.85;5.20;;;;;;;;;;5026494;28;20060;-72
2023/06/02 00:59:32;;;;;;;6.65;4.88;;;;;;;;;;5023048;28;20037;-70
2023/06/02 01:01:57;;;;;;;5.30;4.80;;;;;;;;;;5026077;28;20084;-70
2023/06/02 01:04:23;;;;;;;5.80;5.20;;;;;;;;;;5026310;28;20043;-69
2023/06/02 01:06:50;;;;;;;4.85;4.47;;;;;;;;;;5025079;28;20698;-70
2023/06/02 01:09:16;;;;;;;5.80;5.20;;;;;;;;;;5024302;28;20037;-70
2023/06/02 01:11:48;;;;;;;6.18;4.93;;;;;;;;;;5026235;28;20056;-71
2023/06/02 01:14:15;;;;;;;5.78;5.28;;;;;;;;;;5020262;28;20034;-69
2023/06/02 01:16:44;;;;;;;5.38;4.88;;;;;;;;;;5023454;28;20055;-70
2023/06/02 01:19:14;;;;;;;6.85;5.32;;;;;;;;;;5023868;28;20555;-71
2023/06/02 01:21:47;;;;;;;5.65;5.00;;;;;;;;;;5023047;28;20037;-70
2023/06/02 01:24:14;;;;;;;5.80;5.40;;;;;;;;;;5018951;28;20040;-70
2023/06/02 01:26:40;;;;;;;5.57;5.07;;;;;;;;;;5028587;28;20037;-69
2023/06/02 01:29:07;;;;;;;7.95;5.10;;;;;;;;;;5024083;28;20056;-70
2023/06/02 01:31:51;;;;;;;6.38;5.05;;;;;;;;;;5023105;28;20048;-69
2023/06/02 01:34:37;;;;;;;6.05;4.82;;;;;;;;;;5032706;28;20065;-70
2023/06/02 01:37:04;;;;;;;6.00;5.40;;;;;;;;;;5023720;28;20042;-69
2023/06/02 01:39:30;;;;;;;6.05;5.50;;;;;;;;;;5025291;28;20112;-70
2023/06/02 01:42:00;;;;;;;5.80;5.28;;;;;;;;;;5023431;28;20554;-69
2023/06/02 01:44:27;;;;;;;8.70;5.82;;;;;;;;;;5025455;28;20029;-71
2023/06/02 01:46:53;;;;;;;4.90;4.50;;;;;;;;;;5024195;28;20508;-70
2023/06/02 01:49:19;;;;;;;7.25;5.18;;;;;;;;;;5025949;28;20041;-69
2023/06/02 01:51:45;;;;;;;5.72;5.22;;;;;;;;;;5024078;28;20467;-71
2023/06/02 01:54:11;;;;;;;5.53;5.03;;;;;;;;;;5025234;28;20075;-69
2023/06/02 01:56:37;;;;;;;5.53;5.03;;;;;;;;;;5024142;28;20068;-70
2023/06/02 01:59:03;;;;;;;15.20;5.43;;;;;;;;;;5021898;28;20730;-70
2023/06/02 02:01:30;;;;;;;5.68;4.90;;;;;;;;;;5023837;28;20061;-69
2023/06/02 02:03:56;;;;;;;6.53;5.40;;;;;;;;;;5025700;28;20037;-69
2023/06/02 02:06:29;;;;;;;6.95;5.40;;;;;;;;;;5023466;28;20374;-70
2023/06/02 02:08:59;;;;;;;7.43;5.35;;;;;;;;;;5024997;28;20051;-71
2023/06/02 02:11:27;;;;;;;7.05;5.55;;;;;;;;;;5025133;28;20121;-71
2023/06/02 02:13:54;;;;;;;5.10;4.70;;;;;;;;;;5025135;28;20063;-70
2023/06/02 02:16:21;;;;;;;5.40;4.90;;;;;;;;;;5021348;28;20567;-70
2023/06/02 02:18:47;;;;;;;4.95;4.60;;;;;;;;;;5007102;28;20055;-69
2023/06/02 02:21:13;;;;;;;7.30;5.60;;;;;;;;;;5024920;28;20037;-69
2023/06/02 02:23:39;;;;;;;6.55;5.45;;;;;;;;;;5021856;28;20055;-69
2023/06/02 02:26:06;;;;;;;6.53;5.47;;;;;;;;;;5022744;28;20034;-69
2023/06/02 02:28:31;;;;;;;5.88;5.38;;;;;;;;;;5022413;28;20171;-70
2023/06/02 02:30:57;;;;;;;5.28;4.78;;;;;;;;;;5021107;28;20073;-70
2023/06/02 02:33:23;;;;;;;6.85;5.50;;;;;;;;;;5021323;28;20033;-69
2023/06/02 02:35:51;;;;;;;6.47;5.13;;;;;;;;;;5025990;28;20041;-69
2023/06/02 02:38:16;;;;;;;6.63;5.05;;;;;;;;;;5022869;28;20041;-70
2023/06/02 02:40:42;;;;;;;7.45;5.90;;;;;;;;;;5035318;28;20045;-71
2023/06/02 02:43:07;;;;;;;8.38;5.53;;;;;;;;;;5021151;28;20045;-70
2023/06/02 02:45:33;;;;;;;6.85;5.13;;;;;;;;;;5023276;28;20033;-69
2023/06/02 02:47:59;;;;;;;5.65;5.15;;;;;;;;;;5012657;28;20069;-70
2023/06/02 02:50:25;;;;;;;6.15;5.43;;;;;;;;;;5012425;28;20026;-69
2023/06/02 02:52:51;;;;;;;5.75;5.25;;;;;;;;;;5020696;28;20043;-70
2023/06/02 02:55:16;;;;;;;5.75;5.25;;;;;;;;;;5023958;28;20040;-71
2023/06/02 02:57:42;;;;;;;6.03;5.53;;;;;;;;;;5036374;28;20041;-70
2023/06/02 03:00:09;;;;;;;6.78;5.32;;;;;;;;;;5020929;28;20095;-69
2023/06/02 03:02:36;;;;;;;7.13;5.55;;;;;;;;;;5037793;28;20033;-70
2023/06/02 03:05:02;;;;;;;7.28;5.60;;;;;;;;;;5022126;28;20029;-69
2023/06/02 03:07:31;;;;;;;5.70;5.00;;;;;;;;;;5020970;28;20116;-71
2023/06/02 03:09:57;;;;;;;10.15;5.20;;;;;;;;;;5014870;28;20053;-68
2023/06/02 03:12:23;;;;;;;6.90;5.45;;;;;;;;;;5028328;28;20099;-69
2023/06/02 03:14:48;;;;;;;5.63;5.13;;;;;;;;;;5024930;28;20499;-68
2023/06/02 03:17:14;;;;;;;7.55;5.38;;;;;;;;;;5025178;28;20124;-70
2023/06/02 03:19:40;;;;;;;8.05;5.78;;;;;;;;;;5039014;28;20083;-68
2023/06/02 03:22:06;;;;;;;6.00;5.45;;;;;;;;;;5023895;28;20037;-68
2023/06/02 03:24:33;;;;;;;5.95;5.45;;;;;;;;;;5022625;28;20034;-69
2023/06/02 03:27:03;;;;;;;6.00;5.23;;;;;;;;;;5021151;28;20117;-68
2023/06/02 03:29:29;;;;;;;7.13;5.82;;;;;;;;;;5023052;28;20409;-68
2023/06/02 03:31:55;;;;;;;18.42;5.93;;;;;;;;;;5023638;28;20050;-69
2023/06/02 03:34:24;;;;;;;;;;;;;;;;;;5028585;28;20045;-69
2023/06/02 03:36:51;;;;;;;6.03;5.53;;;;;;;;;;5036754;28;20384;-68
2023/06/02 03:39:18;;;;;;;7.13;5.13;;;;;;;;;;5019803;28;20037;-68
2023/06/02 03:41:44;;;;;;;6.20;5.60;;;;;;;;;;5022605;28;20045;-68
2023/06/02 03:44:10;;;;;;;6.38;5.32;;;;;;;;;;5019213;28;20037;-68
2023/06/02 03:46:35;;;;;;;7.13;5.70;;;;;;;;;;5021308;28;20045;-67
2023/06/02 03:49:03;;;;;;;6.05;5.45;;;;;;;;;;5022811;28;20083;-67
2023/06/02 03:51:30;;;;;;;6.28;5.43;;;;;;;;;;5020668;28;20377;-68
2023/06/02 03:53:56;;;;;;;7.18;5.60;;;;;;;;;;5023002;28;20041;-67
2023/06/02 03:56:23;;;;;;;7.05;5.68;;;;;;;;;;5021087;28;20115;-68
2023/06/02 03:58:50;;;;;;;6.47;5.78;;;;;;;;;;5027330;28;20064;-68
2023/06/02 04:01:17;;;;;;;6.05;5.45;;;;;;;;;;5024099;28;20106;-69
2023/06/02 04:03:44;;;;;;;6.70;6.10;;;;;;;;;;5010027;28;20037;-68
2023/06/02 04:06:12;;;;;;;6.43;5.82;;;;;;;;;;5025134;28;20037;-67
2023/06/02 04:08:39;;;;;;;6.43;5.82;;;;;;;;;;5026009;28;20069;-67
2023/06/02 04:11:04;;;;;;;6.22;5.63;;;;;;;;;;5027005;28;20080;-67
2023/06/02 04:13:31;;;;;;;6.72;6.10;;;;;;;;;;5023826;28;20510;-68
2023/06/02 04:15:58;;;;;;;6.38;5.82;;;;;;;;;;5026367;28;20052;-69
2023/06/02 04:18:26;;;;;;;6.60;5.68;;;;;;;;;;5024825;28;20489;-69
2023/06/02 04:20:53;;;;;;;6.88;6.28;;;;;;;;;;5026212;28;20060;-68
2023/06/02 04:23:18;;;;;;;7.32;5.93;;;;;;;;;;5026945;28;20033;-68
2023/06/02 04:25:44;;;;;;;6.32;5.70;;;;;;;;;;5023726;28;20251;-68
2023/06/02 04:28:10;;;;;;;7.88;6.28;;;;;;;;;;5025676;28;20048;-70
2023/06/02 04:30:38;;;;;;;6.57;5.47;;;;;;;;;;5036967;28;20060;-69
2023/06/02 04:33:05;;;;;;;7.30;5.82;;;;;;;;;;5024397;28;20069;-68
2023/06/02 04:35:33;;;;;;;6.57;5.97;;;;;;;;;;5031300;28;20083;-69
2023/06/02 04:37:58;;;;;;;6.15;5.50;;;;;;;;;;5042162;28;20512;-68
2023/06/02 04:40:25;;;;;;;5.60;5.10;;;;;;;;;;5027152;28;20029;-68
2023/06/02 04:42:52;;;;;;;6.70;5.85;;;;;;;;;;5029759;28;20041;-67
2023/06/02 04:45:20;;;;;;;5.78;5.28;;;;;;;;;;5037131;28;20035;-68
2023/06/02 04:47:47;;;;;;;9.23;6.10;;;;;;;;;;5022023;28;20131;-68
2023/06/02 04:50:13;;;;;;;7.20;6.40;;;;;;;;;;5018473;28;20057;-69
2023/06/02 04:52:41;;;;;;;8.50;6.13;;;;;;;;;;5021519;28;20529;-69
2023/06/02 04:55:08;;;;;;;5.63;5.20;;;;;;;;;;5013509;28;20112;-69
2023/06/02 04:57:36;;;;;;;6.75;6.13;;;;;;;;;;5020988;28;20048;-70
2023/06/02 05:00:04;;;;;;;6.85;6.15;;;;;;;;;;5027662;28;20064;-68
2023/06/02 05:02:31;;;;;;;8.50;6.38;;;;;;;;;;5018320;28;20051;-68
2023/06/02 05:04:58;;;;;;;7.32;6.60;;;;;;;;;;5022485;28;20038;-69
2023/06/02 05:07:23;;;;;;;7.43;6.68;;;;;;;;;;5024938;28;20504;-68
2023/06/02 05:09:49;;;;;;;7.75;6.95;;;;;;;;;;5023027;28;20040;-70
2023/06/02 05:12:18;;;;;;;10.10;6.85;;;;;;;;;;5026102;28;20037;-68
2023/06/02 05:14:44;;;;;;;7.32;6.22;;;;;;;;;;5025131;28;20056;-69
2023/06/02 05:17:11;;;;;;;11.30;6.53;;;;;;;;;;5026651;28;20515;-68
2023/06/02 05:19:42;;;;;;;7.30;6.60;;;;;;;;;;5023142;28;20041;-68
2023/06/02 05:22:08;;;;;;;7.22;6.60;;;;;;;;;;5025791;28;20029;-69
2023/06/02 05:24:34;;;;;;;7.13;6.43;;;;;;;;;;5024745;28;20525;-70
2023/06/02 05:27:00;;;;;;;9.38;6.72;;;;;;;;;;5025712;28;20037;-69
2023/06/02 05:29:26;;;;;;;9.82;7.57;;;;;;;;;;5022616;28;20832;-70
2023/06/02 05:31:52;;;;;;;8.40;6.88;;;;;;;;;;5031178;28;20088;-70
2023/06/02 05:34:17;;;;;;;8.10;6.65;;;;;;;;;;5024080;28;20102;-68
2023/06/02 05:36:43;;;;;;;8.63;7.25;;;;;;;;;;5009429;28;20143;-68
2023/06/02 05:39:10;;;;;;;7.65;6.95;;;;;;;;;;5022232;28;20036;-68
2023/06/02 05:41:36;;;;;;;8.00;7.20;;;;;;;;;;5024167;28;20033;-68
2023/06/02 05:44:02;;;;;;;7.40;6.72;;;;;;;;;;5024216;28;20040;-68
2023/06/02 05:46:29;;;;;;;7.20;6.55;;;;;;;;;;5022090;28;20037;-68
2023/06/02 05:48:55;;;;;;;7.78;6.97;;;;;;;;;;5021672;28;20037;-68
2023/06/02 05:51:21;;;;;;;7.72;6.93;;;;;;;;;;5025609;28;20037;-68
2023/06/02 05:53:49;;;;;;;8.07;7.35;;;;;;;;;;5024396;28;20044;-69
2023/06/02 05:56:17;;;;;;;8.10;6.40;;;;;;;;;;5022309;28;20021;-68
2023/06/02 05:58:42;;;;;;;8.02;7.22;;;;;;;;;;5023349;28;20041;-68
2023/06/02 06:01:11;;;;;;;7.25;6.65;;;;;;;;;;5023555;28;20539;-68
2023/06/02 06:03:37;;;;;;;10.23;6.82;;;;;;;;;;5024816;28;20175;-70
2023/06/02 06:06:04;;;;;;;8.55;7.70;;;;;;;;;;5020350;28;20037;-70
2023/06/02 06:08:30;;;;;;;7.97;6.70;;;;;;;;;;5018954;28;20045;-68
2023/06/02 06:10:57;;;;;;;7.18;6.50;;;;;;;;;;5022372;28;20029;-68
2023/06/02 06:13:23;;;;;;;9.20;6.68;;;;;;;;;;5016262;28;20037;-67
2023/06/02 06:15:49;;;;;;;7.40;6.20;;;;;;;;;;5020901;28;20545;-68
2023/06/02 06:18:15;;;;;;;7.15;6.45;;;;;;;;;;5019414;28;20064;-67
2023/06/02 06:20:42;;;;;;;8.60;6.97;;;;;;;;;;5019739;28;20126;-69
2023/06/02 06:23:08;;;;;;;7.35;6.63;;;;;;;;;;5020095;28;20102;-69
2023/06/02 06:25:34;;;;;;;7.82;6.65;;;;;;;;;;5022220;28;20139;-68
2023/06/02 06:28:00;;;;;;;8.82;6.80;;;;;;;;;;5021569;28;20515;-69
2023/06/02 06:30:28;;;;;;;8.10;6.78;;;;;;;;;;5019686;28;20052;-67
2023/06/02 06:32:59;;;;;;;7.22;6.53;;;;;;;;;;5021555;28;20110;-68
2023/06/02 06:35:26;;;;;;;9.38;6.40;;;;;;;;;;5038362;28;20104;-68
2023/06/02 06:37:52;;;;;;;7.05;6.43;;;;;;;;;;5020019;28;20045;-67
2023/06/02 06:40:17;;;;;;;7.03;6.32;;;;;;;;;;5021571;28;20412;-69
2023/06/02 06:42:43;;;;;;;7.13;6.43;;;;;;;;;;5018876;28;20041;-68
2023/06/02 06:45:19;;;;;;;7.75;6.82;;;;;;;;;;5019534;28;20036;-69
2023/06/02 06:47:46;;;;;;;8.57;7.30;;;;;;;;;;5023641;28;20037;-69
2023/06/02 06:50:16;;;;;;;7.40;6.70;;;;;;;;;;5024768;28;20044;-69
2023/06/02 06:52:44;;;;;;;7.93;6.53;;;;;;;;;;5025352;28;20106;-68
2023/06/02 06:55:10;;;;;;;7.40;6.70;;;;;;;;;;5025019;28;20484;-68
2023/06/02 06:57:36;;;;;;;7.13;6.25;;;;;;;;;;5028478;28;20045;-69
2023/06/02 07:00:03;;;;;;;8.52;6.85;;;;;;;;;;5028455;28;20033;-68
2023/06/02 07:02:29;;;;;;;7.90;6.30;;;;;;;;;;5024886;28;20546;-69
2023/06/02 07:04:54;;;;;;;7.10;6.40;;;;;;;;;;5028734;28;20509;-68
2023/06/02 07:07:20;;;;;;;7.03;6.43;;;;;;;;;;5028487;28;20037;-69
2023/06/02 07:09:46;;;;;;;7.10;6.40;;;;;;;;;;5026337;28;20041;-70
2023/06/02 07:12:12;;;;;;;8.45;6.57;;;;;;;;;;5027884;28;20189;-69
2023/06/02 07:14:37;;;;;;;7.60;6.80;;;;;;;;;;5028009;28;20086;-70
2023/06/02 07:17:03;;;;;;;9.82;6.97;;;;;;;;;;5025149;28;20644;-68
2023/06/02 07:19:29;;;;;;;8.07;6.80;;;;;;;;;;5027153;28;20418;-70
2023/06/02 07:21:54;;;;;;;6.80;6.15;;;;;;;;;;5022598;28;20041;-70
2023/06/02 07:24:20;;;;;;;7.55;6.72;;;;;;;;;;5024170;28;20033;-69
2023/06/02 07:26:46;;;;;;;10.52;7.32;;;;;;;;;;5016721;28;20056;-69
2023/06/02 07:29:11;;;;;;;7.15;6.25;;;;;;;;;;5022379;28;20096;-68
2023/06/02 07:31:37;;;;;;;7.93;7.13;;;;;;;;;;5023944;28;20063;-69
2023/06/02 07:34:03;;;;;;;10.32;6.65;;;;;;;;;;5022436;28;20055;-70
2023/06/02 07:36:28;;;;;;;9.05;6.82;;;;;;;;;;5023708;28;20030;-71
2023/06/02 07:38:54;;;;;;;7.50;6.72;;;;;;;;;;5023825;28;20037;-69
2023/06/02 07:41:20;;;;;;;8.77;6.53;;;;;;;;;;5023097;28;20041;-69
2023/06/02 07:43:46;;;;;;;8.48;6.88;;;;;;;;;;5020963;28;20056;-71
2023/06/02 07:46:12;;;;;;;9.68;6.45;;;;;;;;;;5024556;28;20385;-70
2023/06/02 07:48:38;;;;;;;8.55;6.53;;;;;;;;;;5024027;28;20071;-69
2023/06/02 07:51:04;;;;;;;8.98;7.03;;;;;;;;;;5022296;28;20056;-70
2023/06/02 07:53:29;;;;;;;8.25;6.43;;;;;;;;;;5023924;28;20049;-70
2023/06/02 07:55:56;;;;;;;9.00;6.47;;;;;;;;;;5021524;28;20034;-70
2023/06/02 07:58:21;;;;;;;8.68;7.00;;;;;;;;;;5020653;28;20038;-70
2023/06/02 08:00:48;;;;;;;7.13;6.43;;;;;;;;;;5023249;28;20040;-71
2023/06/02 08:03:14;;;;;;;8.48;6.80;;;;;;;;;;5019252;28;20380;-71
2023/06/02 08:05:40;;;;;;;8.20;7.00;;;;;;;;;;5023941;28;20037;-70
2023/06/02 08:08:05;;;;;;;9.75;6.95;;;;;;;;;;5023358;28;20041;-70
2023/06/02 08:10:31;;;;;;;8.68;6.70;;;;;;;;;;5024289;28;20038;-69
2023/06/02 08:12:57;;;;;;;7.43;6.72;;;;;;;;;;5021777;28;20562;-70
2023/06/02 08:15:23;;;;;;;8.88;6.75;;;;;;;;;;5024144;28;20087;-70
2023/06/02 08:17:48;;;;;;;9.68;7.18;;;;;;;;;;5024335;28;20045;-70
2023/06/02 08:20:16;;;;;;;8.20;6.70;;;;;;;;;;5022018;28;20584;-71
2023/06/02 08:22:44;;;;;;;8.07;6.75;;;;;;;;;;5023953;28;20056;-70
2023/06/02 08:25:12;;;;;;;7.85;7.05;;;;;;;;;;5020411;28;20040;-71
2023/06/02 08:27:38;;;;;;;7.53;6.82;;;;;;;;;;5023941;28;20049;-70
2023/06/02 08:30:05;;;;;;;8.35;6.90;;;;;;;;;;5021309;28;20143;-70
2023/06/02 08:32:31;;;;;;;8.93;6.47;;;;;;;;;;5023728;28;20037;-69
2023/06/02 08:35:01;;;;;;;8.35;6.78;;;;;;;;;;5023617;28;20044;-71
2023/06/02 08:37:29;;;;;;;7.68;6.97;;;;;;;;;;5022018;28;20025;-70
2023/06/02 08:39:55;;;;;;;9.93;7.00;;;;;;;;;;5023348;28;20033;-70
2023/06/02 08:42:24;;;;;;;8.45;7.28;;;;;;;;;;5026846;28;20030;-70
2023/06/02 08:44:50;;;;;;;7.10;6.43;;;;;;;;;;5024815;28;20109;-69
2023/06/02 08:47:22;;;;;;;7.47;6.50;;;;;;;;;;5026879;28;20160;-69
2023/06/02 08:49:47;;;;;;;7.20;6.50;;;;;;;;;;5023705;28;20052;-69
2023/06/02 08:52:25;;;;;;;8.10;6.60;;;;;;;;;;5026865;28;20034;-70
2023/06/02 08:54:51;;;;;;;7.03;6.33;;;;;;;;;;5022729;28;20030;-70
2023/06/02 08:57:20;;;;;;;6.50;5.90;;;;;;;;;;5026462;28;20060;-70
2023/06/02 08:59:46;;;;;;;7.30;6.30;;;;;;;;;;5026332;28;20068;-70
2023/06/02 09:02:13;;;;;;;7.25;6.45;;;;;;;;;;5023952;28;20056;-70
2023/06/02 09:04:39;;;;;;;7.00;6.30;;;;;;;;;;5021654;28;20034;-69
2023/06/02 09:07:15;;;;;;;7.72;6.07;;;;;;;;;;5023930;28;20095;-70
2023/06/02 09:09:45;;;;;;;8.30;6.30;;;;;;;;;;5025248;28;20033;-70
2023/06/02 09:12:12;;;;;;;7.50;6.53;;;;;;;;;;5023219;28;20041;-69
2023/06/02 09:14:39;;;;;;;10.45;6.65;;;;;;;;;;5026157;28;20034;-70
2023/06/02 09:17:23;;;;;;;6.25;5.65;;;;;;;;;;5026173;28;20500;-69
2023/06/02 09:19:50;;;;;;;7.55;6.70;;;;;;;;;;5023373;28;20045;-70
2023/06/02 09:22:16;;;;;;;9.20;6.20;;;;;;;;;;5023583;28;20175;-69
2023/06/02 09:24:42;;;;;;;7.43;6.65;;;;;;;;;;5025799;28;20489;-68
2023/06/02 09:27:15;;;;;;;7.47;6.78;;;;;;;;;;5025924;28;20104;-68
2023/06/02 09:29:43;;;;;;;6.40;5.90;;;;;;;;;;5020613;28;20091;-69
2023/06/02 09:32:16;;;;;;;7.28;6.45;;;;;;;;;;5025459;28;20033;-70
2023/06/02 09:34:46;;;;;;;7.07;6.38;;;;;;;;;;5024652;28;20048;-69
2023/06/02 09:37:15;;;;;;;7.10;6.40;;;;;;;;;;5025993;28;20036;-68
2023/06/02 09:39:56;;;;;;;6.72;6.10;;;;;;;;;;5023884;28;20037;-70
2023/06/02 09:42:22;;;;;;;6.15;5.55;;;;;;;;;;5026307;28;20722;-68
2023/06/02 09:45:08;;;;;;;6.80;6.20;;;;;;;;;;5025215;28;20113;-69
2023/06/02 09:47:38;;;;;;;7.07;6.32;;;;;;;;;;5023295;28;20505;-69
2023/06/02 09:50:05;;;;;;;8.82;6.38;;;;;;;;;;5025187;28;20037;-69
2023/06/02 09:52:31;;;;;;;6.50;5.97;;;;;;;;;;5025461;28;20410;-69
2023/06/02 09:54:59;;;;;;;7.13;6.50;;;;;;;;;;5025453;28;20172;-69
2023/06/02 09:57:25;;;;;;;6.95;6.18;;;;;;;;;;5021713;28;20374;-69
2023/06/02 09:59:51;;;;;;;6.90;6.20;;;;;;;;;;5025311;28;20042;-69
2023/06/02 10:02:17;;;;;;;7.28;6.00;;;;;;;;;;5025299;28;20037;-70
2023/06/02 10:04:44;;;;;;;7.07;6.38;;;;;;;;;;5025019;28;20111;-70
2023/06/02 10:07:41;;;;;;;6.97;6.30;;;;;;;;;;5026101;28;20428;-70
2023/06/02 10:10:18;;;;;;;8.98;6.35;;;;;;;;;;5022815;28;20050;-69
2023/06/02 10:12:56;;;;;;;6.22;5.72;;;;;;;;;;5021886;28;20460;-70
2023/06/02 10:15:49;;;;;;;6.88;6.20;;;;;;;;;;5021495;28;20029;-68
2023/06/02 10:18:49;;;;;;;6.50;5.90;;;;;;;;;;5024064;28;20382;-69
2023/06/02 10:21:21;;;;;;;7.82;5.97;;;;;;;;;;5023411;28;20520;-69
2023/06/02 10:24:03;;;;;;;6.93;5.75;;;;;;;;;;5022650;28;20041;-70
2023/06/02 10:26:48;;;;;;;6.10;5.60;;;;;;;;;;5024284;28;20648;-71
2023/06/02 10:29:15;;;;;;;5.60;5.07;;;;;;;;;;5024582;28;20048;-70
2023/06/02 10:31:42;;;;;;;5.50;5.00;;;;;;;;;;5022873;28;20112;-71
2023/06/02 10:34:07;;;;;;;6.00;5.40;;;;;;;;;;5024741;28;20596;-69
2023/06/02 10:37:01;;;;;;;5.43;4.93;;;;;;;;;;5024863;28;20125;-70
2023/06/02 10:39:46;;;;;;;5.43;4.93;;;;;;;;;;5023228;28;20033;-72
2023/06/02 10:42:13;;;;;;;7.72;5.03;;;;;;;;;;5022586;28;20044;-73
2023/06/02 10:44:39;;;;;;;4.70;4.30;;;;;;;;;;5024831;28;20128;-71
2023/06/02 10:47:17;;;;;;;5.60;5.10;;;;;;;;;;5024956;28;20120;-71
2023/06/02 10:49:55;;;;;;;4.70;4.30;;;;;;;;;;5022562;28;20638;-70
2023/06/02 10:52:21;;;;;;;5.95;5.35;;;;;;;;;;5024728;28;20038;-69
2023/06/02 10:55:08;;;;;;;5.30;4.80;;;;;;;;;;5024741;28;20062;-69
2023/06/02 10:57:58;;;;;;;5.03;4.53;;;;;;;;;;5017980;28;20041;-71
2023/06/02 11:00:36;;;;;;;5.53;4.70;;;;;;;;;;5021341;28;20515;-70
2023/06/02 11:03:03;;;;;;;6.07;4.53;;;;;;;;;;5020213;28;20083;-70
2023/06/02 11:05:32;;;;;;;4.82;4.43;;;;;;;;;;5018368;28;20041;-68
2023/06/02 11:08:14;;;;;;;4.93;4.43;;;;;;;;;;5010117;28;20038;-70
2023/06/02 11:10:41;;;;;;;5.78;4.43;;;;;;;;;;5014484;28;20037;-68
2023/06/02 11:13:06;;;;;;;8.65;4.97;;;;;;;;;;5019193;28;20488;-69
2023/06/02 11:15:32;;;;;;;4.63;4.20;;;;;;;;;;5018257;28;20044;-69
2023/06/02 11:17:57;;;;;;;5.13;4.60;;;;;;;;;;5019697;28;20121;-68
2023/06/02 11:20:36;;;;;;;6.00;4.55;;;;;;;;;;5020246;28;20558;-69
2023/06/02 11:23:05;;;;;;;4.75;4.35;;;;;;;;;;5020246;28;20038;-70
2023/06/02 11:25:30;;;;;;;4.88;4.47;;;;;;;;;;5018822;28;20115;-71
2023/06/02 11:27:56;;;;;;;5.55;4.78;;;;;;;;;;5020287;28;21258;-68
2023/06/02 11:30:24;;;;;;;5.18;4.72;;;;;;;;;;5020482;28;20037;-71
2023/06/02 11:32:51;;;;;;;6.00;4.95;;;;;;;;;;5022802;28;20152;-68
2023/06/02 11:35:25;;;;;;;9.38;4.72;;;;;;;;;;5022283;28;20029;-70
2023/06/02 11:38:08;;;;;;;6.35;4.70;;;;;;;;;;5022163;28;20049;-70
2023/06/02 11:40:36;;;;;;;5.22;4.63;;;;;;;;;;5025135;28;20064;-70
2023/06/02 11:43:03;;;;;;;;;;;;;;;;;;5023425;28;20041;-70
2023/06/02 11:45:29;;;;;;;5.20;4.75;;;;;;;;;;5022889;28;19913;-71
2023/06/02 11:47:56;;;;;;;5.25;4.80;;;;;;;;;;5024215;28;20041;-72
2023/06/02 11:50:21;;;;;;;5.32;4.82;;;;;;;;;;5023757;28;20115;-72
2023/06/02 11:52:47;;;;;;;5.20;4.80;;;;;;;;;;5021616;28;20062;-72
2023/06/02 11:55:13;;;;;;;4.95;4.32;;;;;;;;;;5023594;28;20095;-69
2023/06/02 11:57:42;;;;;;;5.53;4.80;;;;;;;;;;5024534;28;20071;-70
2023/06/02 12:00:19;;;;;;;5.15;4.70;;;;;;;;;;5023695;28;20068;-70
2023/06/02 12:02:53;;;;;;;6.63;5.00;;;;;;;;;;5021747;28;20030;-71
2023/06/02 12:05:30;;;;;;;5.97;5.25;;;;;;;;;;5024053;28;20026;-69
2023/06/02 12:08:05;;;;;;;5.40;4.90;;;;;;;;;;5021734;28;20116;-72
2023/06/02 12:10:31;;;;;;;6.15;5.30;;;;;;;;;;5021966;28;20029;-69
2023/06/02 12:12:57;;;;;;;9.48;5.65;;;;;;;;;;5022664;28;20044;-69
2023/06/02 12:15:27;;;;;;;5.82;5.32;;;;;;;;;;5023485;28;20046;-69
2023/06/02 12:17:53;;;;;;;9.40;5.25;;;;;;;;;;5020379;28;20038;-73
2023/06/02 12:20:19;;;;;;;6.05;5.43;;;;;;;;;;5023208;28;20043;-72
2023/06/02 12:22:52;;;;;;;5.68;5.07;;;;;;;;;;5023594;28;20071;-71
2023/06/02 12:25:17;;;;;;;5.75;5.22;;;;;;;;;;5019445;28;20033;-72
2023/06/02 12:27:43;;;;;;;7.10;5.10;;;;;;;;;;5021727;28;20636;-69
2023/06/02 12:30:09;;;;;;;5.90;5.30;;;;;;;;;;5023151;28;20155;-70
2023/06/02 12:32:35;;;;;;;7.57;5.13;;;;;;;;;;5022170;28;20373;-71
2023/06/02 12:35:01;;;;;;;5.40;4.95;;;;;;;;;;5023788;28;20042;-71
2023/06/02 12:37:29;;;;;;;5.75;5.10;;;;;;;;;;5021587;28;20075;-72
2023/06/02 12:39:55;;;;;;;5.45;4.93;;;;;;;;;;5023152;28;20104;-73
2023/06/02 12:42:21;;;;;;;5.45;4.80;;;;;;;;;;5023238;28;20064;-71
2023/06/02 12:44:48;;;;;;;5.90;5.30;;;;;;;;;;5019980;28;20057;-72
2023/06/02 12:47:17;;;;;;;5.32;4.93;;;;;;;;;;5022985;28;20033;-72
2023/06/02 12:49:47;;;;;;;6.20;5.15;;;;;;;;;;5022793;28;20400;-72
2023/06/02 12:52:14;;;;;;;7.07;5.28;;;;;;;;;;5021264;28;20069;-69
2023/06/02 12:54:40;;;;;;;6.88;5.43;;;;;;;;;;5022592;28;20056;-69
2023/06/02 12:57:07;;;;;;;5.45;5.05;;;;;;;;;;5022701;28;20658;-70
2023/06/02 12:59:32;;;;;;;5.97;5.38;;;;;;;;;;5022402;28;20033;-70
2023/06/02 13:01:58;;;;;;;5.85;5.30;;;;;;;;;;5020936;28;20662;-70
2023/06/02 13:04:23;;;;;;;5.35;4.82;;;;;;;;;;5022788;28;20037;-71
2023/06/02 13:06:49;;;;;;;5.22;4.78;;;;;;;;;;5023083;28;20041;-70
2023/06/02 13:09:15;;;;;;;4.90;4.50;;;;;;;;;;5022618;28;20045;-71
2023/06/02 13:11:40;;;;;;;6.88;5.20;;;;;;;;;;5021089;28;20033;-71
2023/06/02 13:14:07;;;;;;;7.25;5.00;;;;;;;;;;5022549;28;20056;-68
2023/06/02 13:16:33;;;;;;;4.95;4.55;;;;;;;;;;5022567;28;20072;-70
2023/06/02 13:18:59;;;;;;;5.68;5.10;;;;;;;;;;5020273;28;20029;-69
2023/06/02 13:21:25;;;;;;;5.18;4.72;;;;;;;;;;5022879;28;20763;-70
2023/06/02 13:23:54;;;;;;;5.45;4.95;;;;;;;;;;5022261;28;20037;-70
2023/06/02 13:26:20;;;;;;;5.45;4.95;;;;;;;;;;5022259;28;20028;-68
2023/06/02 13:28:46;;;;;;;5.50;5.07;;;;;;;;;;5008610;28;20041;-72
2023/06/02 13:31:11;;;;;;;5.88;5.28;;;;;;;;;;5020682;28;20045;-69
2023/06/02 13:33:37;;;;;;;5.28;4.88;;;;;;;;;;5019290;28;20087;-71
2023/06/02 13:36:03;;;;;;;5.25;4.85;;;;;;;;;;5017125;28;20033;-71
2023/06/02 13:38:28;;;;;;;5.55;5.07;;;;;;;;;;5017605;28;20740;-71
2023/06/02 13:40:58;;;;;;;6.35;5.40;;;;;;;;;;5020306;28;20046;-69
2023/06/02 13:43:23;;;;;;;5.30;4.90;;;;;;;;;;5020375;28;20021;-71
2023/06/02 13:45:49;;;;;;;5.43;4.95;;;;;;;;;;5020050;28;20064;-71
2023/06/02 13:48:15;;;;;;;8.43;4.93;;;;;;;;;;5019302;28;20029;-70
2023/06/02 13:50:40;;;;;;;5.75;5.20;;;;;;;;;;5022121;28;20037;-68
2023/06/02 13:53:07;;;;;;;5.47;5.07;;;;;;;;;;5021453;28;20037;-71
2023/06/02 13:55:33;;;;;;;5.40;4.95;;;;;;;;;;5019801;28;20132;-71
2023/06/02 13:57:59;;;;;;;5.43;4.85;;;;;;;;;;5021773;28;20231;-69
2023/06/02 14:00:24;;;;;;;8.40;5.40;;;;;;;;;;5021484;28;20079;-70
2023/06/02 14:02:51;;;;;;;5.45;5.00;;;;;;;;;;5019014;28;20065;-71
2023/06/02 14:05:16;;;;;;;5.78;5.22;;;;;;;;;;5021486;28;20033;-69
2023/06/02 14:07:42;;;;;;;5.35;4.85;;;;;;;;;;5024458;28;20103;-73
2023/06/02 14:10:07;;;;;;;5.97;4.68;;;;;;;;;;5022599;28;20456;-70
2023/06/02 14:12:33;;;;;;;5.32;4.82;;;;;;;;;;5025069;28;20084;-69
2023/06/02 14:14:59;;;;;;;6.90;5.10;;;;;;;;;;5025017;28;20041;-69
2023/06/02 14:17:25;;;;;;;5.40;5.00;;;;;;;;;;5025170;28;20117;-72
2023/06/02 14:19:50;;;;;;;5.72;4.97;;;;;;;;;;5023071;28;20040;-72
2023/06/02 14:22:16;;;;;;;5.72;4.80;;;;;;;;;;5024953;28;20507;-70
2023/06/02 14:24:41;;;;;;;5.63;5.13;;;;;;;;;;5025190;28;20714;-69
2023/06/02 14:27:07;;;;;;;5.47;5.00;;;;;;;;;;5023468;28;20040;-71
2023/06/02 14:29:32;;;;;;;5.57;5.10;;;;;;;;;;5024617;28;20030;-70
2023/06/02 14:31:58;;;;;;;5.40;5.00;;;;;;;;;;5025140;28;20049;-69
2023/06/02 14:34:23;;;;;;;6.30;4.93;;;;;;;;;;5025303;28;20029;-70
2023/06/02 14:36:50;;;;;;;5.40;5.00;;;;;;;;;;5023848;28;20034;-70
2023/06/02 14:39:16;;;;;;;6.95;5.30;;;;;;;;;;5024817;28;20052;-69
2023/06/02 14:41:42;;;;;;;6.55;5.47;;;;;;;;;;5024816;28;20037;-69
2023/06/02 14:44:08;;;;;;;6.22;4.88;;;;;;;;;;5025939;28;20076;-69
2023/06/02 14:46:34;;;;;;;5.47;4.97;;;;;;;;;;5021613;28;20033;-71